sensor_id;sensor_type;location;lat;lon;timestamp;P1;durP1;ratioP1;P2;durP2;ratioP2
26963;SDS011;14521;48.148;-1.656;2023-04-05T00:02:13;1.90;;;1.70;;
26963;SDS011;14521;48.148;-1.656;2023-04-05T00:05:39;1.63;;;1.52;;
26963;SDS011;14521;48.148;-1.656;2023-04-05T00:09:01;1.75;;;1.65;;
26963;SDS011;14521;48.148;-1.656;2023-04-05T00:12:25;2.75;;;1.45;;
26963;SDS011;14521;48.148;-1.656;2023-04-05T00:15:48;2.03;;;1.35;;
26963;SDS011;14521;48.148;-1.656;2023-04-05T00:19:10;1.90;;;1.20;;
26963;SDS011;14521;48.148;-1.656;2023-04-05T00:22:33;1.70;;;1.60;;
26963;SDS011;14521;48.148;-1.656;2023-04-05T00:25:57;1.75;;;1.65;;
26963;SDS011;14521;48.148;-1.656;2023-04-05T00:29:19;2.40;;;1.17;;
26963;SDS011;14521;48.148;-1.656;2023-04-05T00:32:42;1.40;;;1.30;;
26963;SDS011;14521;48.148;-1.656;2023-04-05T00:36:22;1.70;;;1.60;;
26963;SDS011;14521;48.148;-1.656;2023-04-05T00:39:44;1.55;;;1.30;;
26963;SDS011;14521;48.148;-1.656;2023-04-05T00:43:07;1.70;;;1.60;;
26963;SDS011;14521;48.148;-1.656;2023-04-05T00:46:32;1.50;;;1.40;;
26963;SDS011;14521;48.148;-1.656;2023-04-05T00:49:55;4.82;;;1.73;;
26963;SDS011;14521;48.148;-1.656;2023-04-05T00:53:18;2.17;;;1.20;;
26963;SDS011;14521;48.148;-1.656;2023-04-05T00:56:41;2.50;;;1.52;;
26963;SDS011;14521;48.148;-1.656;2023-04-05T01:00:04;1.55;;;1.42;;
26963;SDS011;14521;48.148;-1.656;2023-04-05T01:03:31;1.33;;;1.23;;
26963;SDS011;14521;48.148;-1.656;2023-04-05T01:10:21;1.88;;;1.40;;
26963;SDS011;14521;48.148;-1.656;2023-04-05T01:13:49;1.75;;;1.48;;
26963;SDS011;14521;48.148;-1.656;2023-04-05T01:17:11;1.38;;;1.10;;
26963;SDS011;14521;48.148;-1.656;2023-04-05T01:20:35;1.52;;;1.25;;
26963;SDS011;14521;48.148;-1.656;2023-04-05T01:24:10;1.30;;;1.20;;
26963;SDS011;14521;48.148;-1.656;2023-04-05T01:31:59;2.22;;;1.30;;
26963;SDS011;14521;48.148;-1.656;2023-04-05T01:38:52;2.60;;;1.10;;
26963;SDS011;14521;48.148;-1.656;2023-04-05T01:42:21;3.88;;;1.48;;
26963;SDS011;14521;48.148;-1.656;2023-04-05T01:45:48;2.15;;;1.23;;
26963;SDS011;14521;48.148;-1.656;2023-04-05T01:49:10;1.33;;;1.23;;
26963;SDS011;14521;48.148;-1.656;2023-04-05T01:52:32;1.10;;;1.10;;
26963;SDS011;14521;48.148;-1.656;2023-04-05T01:55:58;1.48;;;1.35;;
26963;SDS011;14521;48.148;-1.656;2023-04-05T01:59:22;1.65;;;1.25;;
26963;SDS011;14521;48.148;-1.656;2023-04-05T02:02:45;1.40;;;1.17;;
26963;SDS011;14521;48.148;-1.656;2023-04-05T02:06:09;1.17;;;1.10;;
26963;SDS011;14521;48.148;-1.656;2023-04-05T02:09:32;1.95;;;1.40;;
26963;SDS011;14521;48.148;-1.656;2023-04-05T02:12:54;1.38;;;1.27;;
26963;SDS011;14521;48.148;-1.656;2023-04-05T02:16:17;1.88;;;1.20;;
26963;SDS011;14521;48.148;-1.656;2023-04-05T02:19:39;1.75;;;1.20;;
26963;SDS011;14521;48.148;-1.656;2023-04-05T02:23:02;1.55;;;1.33;;
26963;SDS011;14521;48.148;-1.656;2023-04-05T02:26:24;1.45;;;1.25;;
26963;SDS011;14521;48.148;-1.656;2023-04-05T02:29:46;1.38;;;1.27;;
26963;SDS011;14521;48.148;-1.656;2023-04-05T02:33:09;1.30;;;1.20;;
26963;SDS011;14521;48.148;-1.656;2023-04-05T02:36:31;1.50;;;1.40;;
26963;SDS011;14521;48.148;-1.656;2023-04-05T02:39:56;1.35;;;1.25;;
26963;SDS011;14521;48.148;-1.656;2023-04-05T02:43:18;1.40;;;1.30;;
26963;SDS011;14521;48.148;-1.656;2023-04-05T02:46:43;1.40;;;1.30;;
26963;SDS011;14521;48.148;-1.656;2023-04-05T02:50:06;1.98;;;1.02;;
26963;SDS011;14521;48.148;-1.656;2023-04-05T02:53:34;2.25;;;2.05;;
26963;SDS011;14521;48.148;-1.656;2023-04-05T02:57:01;1.55;;;1.45;;
26963;SDS011;14521;48.148;-1.656;2023-04-05T03:00:33;2.05;;;1.33;;
26963;SDS011;14521;48.148;-1.656;2023-04-05T03:03:56;2.65;;;1.27;;
26963;SDS011;14521;48.148;-1.656;2023-04-05T03:07:19;1.13;;;1.13;;
26963;SDS011;14521;48.148;-1.656;2023-04-05T03:10:45;2.88;;;1.40;;
26963;SDS011;14521;48.148;-1.656;2023-04-05T03:14:10;1.40;;;1.30;;
26963;SDS011;14521;48.148;-1.656;2023-04-05T03:17:37;2.05;;;1.52;;
26963;SDS011;14521;48.148;-1.656;2023-04-05T03:21:00;0.90;;;0.90;;
26963;SDS011;14521;48.148;-1.656;2023-04-05T03:24:23;1.35;;;1.25;;
26963;SDS011;14521;48.148;-1.656;2023-04-05T03:27:48;1.60;;;1.25;;
26963;SDS011;14521;48.148;-1.656;2023-04-05T03:31:11;1.80;;;1.20;;
26963;SDS011;14521;48.148;-1.656;2023-04-05T03:34:34;1.45;;;1.20;;
26963;SDS011;14521;48.148;-1.656;2023-04-05T03:37:58;1.58;;;0.90;;
26963;SDS011;14521;48.148;-1.656;2023-04-05T03:41:22;1.15;;;0.90;;
26963;SDS011;14521;48.148;-1.656;2023-04-05T03:44:44;1.35;;;1.25;;
26963;SDS011;14521;48.148;-1.656;2023-04-05T03:48:08;1.70;;;1.27;;
26963;SDS011;14521;48.148;-1.656;2023-04-05T03:51:31;1.38;;;1.25;;
26963;SDS011;14521;48.148;-1.656;2023-04-05T03:54:54;1.30;;;1.17;;
26963;SDS011;14521;48.148;-1.656;2023-04-05T03:58:17;1.27;;;1.17;;
26963;SDS011;14521;48.148;-1.656;2023-04-05T04:01:40;1.40;;;1.30;;
26963;SDS011;14521;48.148;-1.656;2023-04-05T04:05:03;1.38;;;1.27;;
26963;SDS011;14521;48.148;-1.656;2023-04-05T04:08:28;1.40;;;1.30;;
26963;SDS011;14521;48.148;-1.656;2023-04-05T04:11:52;1.25;;;1.15;;
26963;SDS011;14521;48.148;-1.656;2023-04-05T04:15:16;1.02;;;1.02;;
26963;SDS011;14521;48.148;-1.656;2023-04-05T04:18:53;1.40;;;1.27;;
26963;SDS011;14521;48.148;-1.656;2023-04-05T04:22:31;1.33;;;1.02;;
26963;SDS011;14521;48.148;-1.656;2023-04-05T04:26:22;1.27;;;1.13;;
26963;SDS011;14521;48.148;-1.656;2023-04-05T04:30:06;1.83;;;1.30;;
26963;SDS011;14521;48.148;-1.656;2023-04-05T04:37:39;1.77;;;1.08;;
26963;SDS011;14521;48.148;-1.656;2023-04-05T04:41:24;1.00;;;1.00;;
26963;SDS011;14521;48.148;-1.656;2023-04-05T04:45:06;1.25;;;1.15;;
26963;SDS011;14521;48.148;-1.656;2023-04-05T04:48:40;1.40;;;1.30;;
26963;SDS011;14521;48.148;-1.656;2023-04-05T04:52:17;0.95;;;0.95;;
26963;SDS011;14521;48.148;-1.656;2023-04-05T04:55:40;1.75;;;1.30;;
26963;SDS011;14521;48.148;-1.656;2023-04-05T04:59:03;3.50;;;0.93;;
26963;SDS011;14521;48.148;-1.656;2023-04-05T05:02:25;2.88;;;1.05;;
26963;SDS011;14521;48.148;-1.656;2023-04-05T05:05:51;2.60;;;1.30;;
26963;SDS011;14521;48.148;-1.656;2023-04-05T05:09:18;1.65;;;1.27;;
26963;SDS011;14521;48.148;-1.656;2023-04-05T05:12:46;1.48;;;0.93;;
26963;SDS011;14521;48.148;-1.656;2023-04-05T05:16:09;1.20;;;1.10;;
26963;SDS011;14521;48.148;-1.656;2023-04-05T05:19:32;0.95;;;0.90;;
26963;SDS011;14521;48.148;-1.656;2023-04-05T05:22:54;1.45;;;1.23;;
26963;SDS011;14521;48.148;-1.656;2023-04-05T05:26:16;1.15;;;1.10;;
26963;SDS011;14521;48.148;-1.656;2023-04-05T05:29:39;0.88;;;0.88;;
26963;SDS011;14521;48.148;-1.656;2023-04-05T05:33:01;1.58;;;1.05;;
26963;SDS011;14521;48.148;-1.656;2023-04-05T05:36:24;1.27;;;1.17;;
26963;SDS011;14521;48.148;-1.656;2023-04-05T05:39:46;1.90;;;1.15;;
26963;SDS011;14521;48.148;-1.656;2023-04-05T05:43:08;4.40;;;1.20;;
26963;SDS011;14521;48.148;-1.656;2023-04-05T05:46:31;3.83;;;1.13;;
26963;SDS011;14521;48.148;-1.656;2023-04-05T05:49:54;11.07;;;1.40;;
26963;SDS011;14521;48.148;-1.656;2023-04-05T05:53:16;1.98;;;1.10;;
26963;SDS011;14521;48.148;-1.656;2023-04-05T05:56:39;2.80;;;1.10;;
26963;SDS011;14521;48.148;-1.656;2023-04-05T06:00:01;1.65;;;1.10;;
26963;SDS011;14521;48.148;-1.656;2023-04-05T06:03:32;1.33;;;1.23;;
26963;SDS011;14521;48.148;-1.656;2023-04-05T06:06:55;3.58;;;1.38;;
26963;SDS011;14521;48.148;-1.656;2023-04-05T06:10:18;4.50;;;1.38;;
26963;SDS011;14521;48.148;-1.656;2023-04-05T06:13:40;1.38;;;1.27;;
26963;SDS011;14521;48.148;-1.656;2023-04-05T06:17:03;1.30;;;1.00;;
26963;SDS011;14521;48.148;-1.656;2023-04-05T06:20:25;4.57;;;1.70;;
26963;SDS011;14521;48.148;-1.656;2023-04-05T06:23:47;4.65;;;1.55;;
26963;SDS011;14521;48.148;-1.656;2023-04-05T06:27:10;1.42;;;1.10;;
26963;SDS011;14521;48.148;-1.656;2023-04-05T06:30:35;1.40;;;1.30;;
26963;SDS011;14521;48.148;-1.656;2023-04-05T06:33:57;3.15;;;1.52;;
26963;SDS011;14521;48.148;-1.656;2023-04-05T06:37:20;6.60;;;1.30;;
26963;SDS011;14521;48.148;-1.656;2023-04-05T06:40:42;1.60;;;0.98;;
26963;SDS011;14521;48.148;-1.656;2023-04-05T06:44:05;2.60;;;2.20;;
26963;SDS011;14521;48.148;-1.656;2023-04-05T06:47:27;2.70;;;1.30;;
26963;SDS011;14521;48.148;-1.656;2023-04-05T06:50:56;5.50;;;1.15;;
26963;SDS011;14521;48.148;-1.656;2023-04-05T06:54:22;1.35;;;1.23;;
26963;SDS011;14521;48.148;-1.656;2023-04-05T06:57:45;5.78;;;1.33;;
26963;SDS011;14521;48.148;-1.656;2023-04-05T07:01:07;4.95;;;1.10;;
26963;SDS011;14521;48.148;-1.656;2023-04-05T07:04:30;4.38;;;1.33;;
26963;SDS011;14521;48.148;-1.656;2023-04-05T07:07:57;4.30;;;1.90;;
26963;SDS011;14521;48.148;-1.656;2023-04-05T07:11:19;8.23;;;1.60;;
26963;SDS011;14521;48.148;-1.656;2023-04-05T07:14:42;4.60;;;1.60;;
26963;SDS011;14521;48.148;-1.656;2023-04-05T07:18:04;2.50;;;2.22;;
26963;SDS011;14521;48.148;-1.656;2023-04-05T07:21:27;4.30;;;1.58;;
26963;SDS011;14521;48.148;-1.656;2023-04-05T07:24:51;1.50;;;1.38;;
26963;SDS011;14521;48.148;-1.656;2023-04-05T07:28:14;1.52;;;1.42;;
26963;SDS011;14521;48.148;-1.656;2023-04-05T07:31:37;1.75;;;1.65;;
26963;SDS011;14521;48.148;-1.656;2023-04-05T07:35:00;2.45;;;1.65;;
26963;SDS011;14521;48.148;-1.656;2023-04-05T07:38:22;1.90;;;1.63;;
26963;SDS011;14521;48.148;-1.656;2023-04-05T07:41:45;2.22;;;1.50;;
26963;SDS011;14521;48.148;-1.656;2023-04-05T07:45:07;7.10;;;1.67;;
26963;SDS011;14521;48.148;-1.656;2023-04-05T07:48:30;1.77;;;1.55;;
26963;SDS011;14521;48.148;-1.656;2023-04-05T07:51:53;1.27;;;1.17;;
26963;SDS011;14521;48.148;-1.656;2023-04-05T07:55:16;1.50;;;1.40;;
26963;SDS011;14521;48.148;-1.656;2023-04-05T07:58:39;1.75;;;1.60;;
26963;SDS011;14521;48.148;-1.656;2023-04-05T08:02:02;4.40;;;1.50;;
26963;SDS011;14521;48.148;-1.656;2023-04-05T08:05:35;5.22;;;1.40;;
26963;SDS011;14521;48.148;-1.656;2023-04-05T08:08:57;3.03;;;1.55;;
26963;SDS011;14521;48.148;-1.656;2023-04-05T08:12:19;2.28;;;1.30;;
26963;SDS011;14521;48.148;-1.656;2023-04-05T08:15:42;2.15;;;1.40;;
26963;SDS011;14521;48.148;-1.656;2023-04-05T08:19:04;1.83;;;1.40;;
26963;SDS011;14521;48.148;-1.656;2023-04-05T08:22:27;1.90;;;1.48;;
26963;SDS011;14521;48.148;-1.656;2023-04-05T08:25:50;2.00;;;1.35;;
26963;SDS011;14521;48.148;-1.656;2023-04-05T08:29:13;5.55;;;1.98;;
26963;SDS011;14521;48.148;-1.656;2023-04-05T08:32:35;3.13;;;1.60;;
26963;SDS011;14521;48.148;-1.656;2023-04-05T08:36:02;2.33;;;1.48;;
26963;SDS011;14521;48.148;-1.656;2023-04-05T08:39:28;3.10;;;1.70;;
26963;SDS011;14521;48.148;-1.656;2023-04-05T08:42:51;14.10;;;1.92;;
26963;SDS011;14521;48.148;-1.656;2023-04-05T08:46:22;1.60;;;1.50;;
26963;SDS011;14521;48.148;-1.656;2023-04-05T08:49:44;2.58;;;1.45;;
26963;SDS011;14521;48.148;-1.656;2023-04-05T08:53:07;4.20;;;1.67;;
26963;SDS011;14521;48.148;-1.656;2023-04-05T08:56:33;7.78;;;1.70;;
26963;SDS011;14521;48.148;-1.656;2023-04-05T08:59:56;3.35;;;1.63;;
26963;SDS011;14521;48.148;-1.656;2023-04-05T09:03:22;4.95;;;2.35;;
26963;SDS011;14521;48.148;-1.656;2023-04-05T09:06:50;6.22;;;1.58;;
26963;SDS011;14521;48.148;-1.656;2023-04-05T09:10:13;4.15;;;1.42;;
26963;SDS011;14521;48.148;-1.656;2023-04-05T09:13:36;2.75;;;1.75;;
26963;SDS011;14521;48.148;-1.656;2023-04-05T09:16:58;6.53;;;1.30;;
26963;SDS011;14521;48.148;-1.656;2023-04-05T09:20:23;3.88;;;1.70;;
26963;SDS011;14521;48.148;-1.656;2023-04-05T09:23:50;1.85;;;1.50;;
26963;SDS011;14521;48.148;-1.656;2023-04-05T09:27:17;4.40;;;1.95;;
26963;SDS011;14521;48.148;-1.656;2023-04-05T09:30:48;2.47;;;1.67;;
26963;SDS011;14521;48.148;-1.656;2023-04-05T09:34:11;5.03;;;1.67;;
26963;SDS011;14521;48.148;-1.656;2023-04-05T09:37:49;2.17;;;1.60;;
26963;SDS011;14521;48.148;-1.656;2023-04-05T09:41:19;3.22;;;1.70;;
26963;SDS011;14521;48.148;-1.656;2023-04-05T09:48:14;3.47;;;1.60;;
26963;SDS011;14521;48.148;-1.656;2023-04-05T09:51:36;1.55;;;1.45;;
26963;SDS011;14521;48.148;-1.656;2023-04-05T09:55:03;4.35;;;1.50;;
26963;SDS011;14521;48.148;-1.656;2023-04-05T09:58:29;2.25;;;1.40;;
26963;SDS011;14521;48.148;-1.656;2023-04-05T10:01:53;2.60;;;1.75;;
26963;SDS011;14521;48.148;-1.656;2023-04-05T10:05:16;2.45;;;1.60;;
26963;SDS011;14521;48.148;-1.656;2023-04-05T10:08:38;4.93;;;1.73;;
26963;SDS011;14521;48.148;-1.656;2023-04-05T10:12:00;3.90;;;1.63;;
26963;SDS011;14521;48.148;-1.656;2023-04-05T10:15:24;1.58;;;1.45;;
26963;SDS011;14521;48.148;-1.656;2023-04-05T10:18:51;2.80;;;1.52;;
26963;SDS011;14521;48.148;-1.656;2023-04-05T10:22:15;3.17;;;1.83;;
26963;SDS011;14521;48.148;-1.656;2023-04-05T10:29:22;2.47;;;1.75;;
26963;SDS011;14521;48.148;-1.656;2023-04-05T10:36:44;2.00;;;1.48;;
26963;SDS011;14521;48.148;-1.656;2023-04-05T10:40:10;2.85;;;1.65;;
26963;SDS011;14521;48.148;-1.656;2023-04-05T10:43:33;2.45;;;1.80;;
26963;SDS011;14521;48.148;-1.656;2023-04-05T10:46:58;2.78;;;1.70;;
26963;SDS011;14521;48.148;-1.656;2023-04-05T10:50:22;2.35;;;1.48;;
26963;SDS011;14521;48.148;-1.656;2023-04-05T10:53:45;1.70;;;1.23;;
26963;SDS011;14521;48.148;-1.656;2023-04-05T10:57:11;2.60;;;1.50;;
26963;SDS011;14521;48.148;-1.656;2023-04-05T11:00:34;1.70;;;1.40;;
26963;SDS011;14521;48.148;-1.656;2023-04-05T11:03:57;1.90;;;1.48;;
26963;SDS011;14521;48.148;-1.656;2023-04-05T11:07:42;4.72;;;1.45;;
26963;SDS011;14521;48.148;-1.656;2023-04-05T11:11:05;1.48;;;1.38;;
26963;SDS011;14521;48.148;-1.656;2023-04-05T11:14:35;1.30;;;1.20;;
26963;SDS011;14521;48.148;-1.656;2023-04-05T11:21:26;2.40;;;1.05;;
26963;SDS011;14521;48.148;-1.656;2023-04-05T11:28:24;1.75;;;1.65;;
26963;SDS011;14521;48.148;-1.656;2023-04-05T11:32:05;1.60;;;1.13;;
26963;SDS011;14521;48.148;-1.656;2023-04-05T11:35:33;2.00;;;1.15;;
26963;SDS011;14521;48.148;-1.656;2023-04-05T11:39:41;1.63;;;1.50;;
26963;SDS011;14521;48.148;-1.656;2023-04-05T11:42:44;3.10;;;1.35;;
26963;SDS011;14521;48.148;-1.656;2023-04-05T11:46:07;1.88;;;1.48;;
26963;SDS011;14521;48.148;-1.656;2023-04-05T11:49:29;1.83;;;1.60;;
26963;SDS011;14521;48.148;-1.656;2023-04-05T11:53:25;5.60;;;1.25;;
26963;SDS011;14521;48.148;-1.656;2023-04-05T11:56:40;1.70;;;1.27;;
26963;SDS011;14521;48.148;-1.656;2023-04-05T12:00:03;1.88;;;1.30;;
26963;SDS011;14521;48.148;-1.656;2023-04-05T12:03:32;1.30;;;1.20;;
26963;SDS011;14521;48.148;-1.656;2023-04-05T12:10:53;2.38;;;1.50;;
26963;SDS011;14521;48.148;-1.656;2023-04-05T12:14:22;1.83;;;1.13;;
26963;SDS011;14521;48.148;-1.656;2023-04-05T12:17:47;2.03;;;1.20;;
26963;SDS011;14521;48.148;-1.656;2023-04-05T12:21:11;1.35;;;1.23;;
26963;SDS011;14521;48.148;-1.656;2023-04-05T12:24:33;1.95;;;0.93;;
26963;SDS011;14521;48.148;-1.656;2023-04-05T12:28:02;1.83;;;1.20;;
26963;SDS011;14521;48.148;-1.656;2023-04-05T12:31:41;2.50;;;1.00;;
26963;SDS011;14521;48.148;-1.656;2023-04-05T12:35:06;6.78;;;1.38;;
26963;SDS011;14521;48.148;-1.656;2023-04-05T12:38:32;1.00;;;1.00;;
26963;SDS011;14521;48.148;-1.656;2023-04-05T12:41:58;5.20;;;1.33;;
26963;SDS011;14521;48.148;-1.656;2023-04-05T12:45:22;1.30;;;1.20;;
26963;SDS011;14521;48.148;-1.656;2023-04-05T12:48:48;1.55;;;1.10;;
26963;SDS011;14521;48.148;-1.656;2023-04-05T12:52:12;1.17;;;1.10;;
26963;SDS011;14521;48.148;-1.656;2023-04-05T12:55:41;1.02;;;0.93;;
26963;SDS011;14521;48.148;-1.656;2023-04-05T12:59:08;1.90;;;1.40;;
26963;SDS011;14521;48.148;-1.656;2023-04-05T13:02:31;1.58;;;1.20;;
26963;SDS011;14521;48.148;-1.656;2023-04-05T13:05:53;1.25;;;1.15;;
26963;SDS011;14521;48.148;-1.656;2023-04-05T13:09:15;1.30;;;1.20;;
26963;SDS011;14521;48.148;-1.656;2023-04-05T13:12:38;1.85;;;1.30;;
26963;SDS011;14521;48.148;-1.656;2023-04-05T13:16:00;2.10;;;1.10;;
26963;SDS011;14521;48.148;-1.656;2023-04-05T13:19:23;3.50;;;1.40;;
26963;SDS011;14521;48.148;-1.656;2023-04-05T13:22:45;0.90;;;0.88;;
26963;SDS011;14521;48.148;-1.656;2023-04-05T13:26:08;1.33;;;1.08;;
26963;SDS011;14521;48.148;-1.656;2023-04-05T13:29:30;1.30;;;1.00;;
26963;SDS011;14521;48.148;-1.656;2023-04-05T13:32:52;1.85;;;1.40;;
26963;SDS011;14521;48.148;-1.656;2023-04-05T13:36:15;1.40;;;1.30;;
26963;SDS011;14521;48.148;-1.656;2023-04-05T13:39:37;2.03;;;1.00;;
26963;SDS011;14521;48.148;-1.656;2023-04-05T13:42:59;1.17;;;0.93;;
26963;SDS011;14521;48.148;-1.656;2023-04-05T13:46:22;1.33;;;1.30;;
26963;SDS011;14521;48.148;-1.656;2023-04-05T13:49:44;1.10;;;1.00;;
26963;SDS011;14521;48.148;-1.656;2023-04-05T13:53:07;1.45;;;1.20;;
26963;SDS011;14521;48.148;-1.656;2023-04-05T13:56:29;2.05;;;0.88;;
26963;SDS011;14521;48.148;-1.656;2023-04-05T13:59:51;2.35;;;1.05;;
26963;SDS011;14521;48.148;-1.656;2023-04-05T14:03:14;3.05;;;1.20;;
26963;SDS011;14521;48.148;-1.656;2023-04-05T14:06:36;1.50;;;0.98;;
26963;SDS011;14521;48.148;-1.656;2023-04-05T14:09:59;1.52;;;1.20;;
26963;SDS011;14521;48.148;-1.656;2023-04-05T14:13:21;2.28;;;1.00;;
26963;SDS011;14521;48.148;-1.656;2023-04-05T14:16:43;1.58;;;1.15;;
26963;SDS011;14521;48.148;-1.656;2023-04-05T14:20:06;3.22;;;1.13;;
26963;SDS011;14521;48.148;-1.656;2023-04-05T14:23:29;1.35;;;1.30;;
26963;SDS011;14521;48.148;-1.656;2023-04-05T14:26:51;1.38;;;1.27;;
26963;SDS011;14521;48.148;-1.656;2023-04-05T14:30:13;1.73;;;1.13;;
26963;SDS011;14521;48.148;-1.656;2023-04-05T14:33:36;3.33;;;1.48;;
26963;SDS011;14521;48.148;-1.656;2023-04-05T14:36:58;1.48;;;1.17;;
26963;SDS011;14521;48.148;-1.656;2023-04-05T14:40:21;1.00;;;1.00;;
26963;SDS011;14521;48.148;-1.656;2023-04-05T14:43:43;2.30;;;1.10;;
26963;SDS011;14521;48.148;-1.656;2023-04-05T14:47:06;1.30;;;1.20;;
26963;SDS011;14521;48.148;-1.656;2023-04-05T14:50:29;1.15;;;1.15;;
26963;SDS011;14521;48.148;-1.656;2023-04-05T14:53:53;3.17;;;1.30;;
26963;SDS011;14521;48.148;-1.656;2023-04-05T14:57:15;1.95;;;1.00;;
26963;SDS011;14521;48.148;-1.656;2023-04-05T15:00:37;2.17;;;1.20;;
26963;SDS011;14521;48.148;-1.656;2023-04-05T15:04:00;1.77;;;1.10;;
26963;SDS011;14521;48.148;-1.656;2023-04-05T15:07:23;1.00;;;1.00;;
26963;SDS011;14521;48.148;-1.656;2023-04-05T15:10:45;9.02;;;1.10;;
26963;SDS011;14521;48.148;-1.656;2023-04-05T15:14:07;1.05;;;0.95;;
26963;SDS011;14521;48.148;-1.656;2023-04-05T15:17:38;1.90;;;1.15;;
26963;SDS011;14521;48.148;-1.656;2023-04-05T15:21:01;1.40;;;1.30;;
26963;SDS011;14521;48.148;-1.656;2023-04-05T15:24:23;1.17;;;0.98;;
26963;SDS011;14521;48.148;-1.656;2023-04-05T15:27:46;2.42;;;1.23;;
26963;SDS011;14521;48.148;-1.656;2023-04-05T15:31:08;1.23;;;1.10;;
26963;SDS011;14521;48.148;-1.656;2023-04-05T15:34:31;0.85;;;0.85;;
26963;SDS011;14521;48.148;-1.656;2023-04-05T15:37:53;1.02;;;1.02;;
26963;SDS011;14521;48.148;-1.656;2023-04-05T15:41:16;1.58;;;0.95;;
26963;SDS011;14521;48.148;-1.656;2023-04-05T15:44:38;1.42;;;1.20;;
26963;SDS011;14521;48.148;-1.656;2023-04-05T15:48:01;1.10;;;1.00;;
26963;SDS011;14521;48.148;-1.656;2023-04-05T15:51:23;1.58;;;1.00;;
26963;SDS011;14521;48.148;-1.656;2023-04-05T15:54:46;2.00;;;1.10;;
26963;SDS011;14521;48.148;-1.656;2023-04-05T15:58:08;1.38;;;1.27;;
26963;SDS011;14521;48.148;-1.656;2023-04-05T16:01:30;2.05;;;1.15;;
26963;SDS011;14521;48.148;-1.656;2023-04-05T16:04:53;1.30;;;1.20;;
26963;SDS011;14521;48.148;-1.656;2023-04-05T16:08:15;1.15;;;1.10;;
26963;SDS011;14521;48.148;-1.656;2023-04-05T16:11:37;1.00;;;1.00;;
26963;SDS011;14521;48.148;-1.656;2023-04-05T16:15:00;1.08;;;0.98;;
26963;SDS011;14521;48.148;-1.656;2023-04-05T16:18:22;1.15;;;1.05;;
26963;SDS011;14521;48.148;-1.656;2023-04-05T16:21:46;1.30;;;1.20;;
26963;SDS011;14521;48.148;-1.656;2023-04-05T16:25:08;1.13;;;1.08;;
26963;SDS011;14521;48.148;-1.656;2023-04-05T16:28:31;2.20;;;1.20;;
26963;SDS011;14521;48.148;-1.656;2023-04-05T16:31:56;0.95;;;0.95;;
26963;SDS011;14521;48.148;-1.656;2023-04-05T16:35:18;1.20;;;1.10;;
26963;SDS011;14521;48.148;-1.656;2023-04-05T16:38:41;1.30;;;1.20;;
26963;SDS011;14521;48.148;-1.656;2023-04-05T16:42:05;1.42;;;1.30;;
26963;SDS011;14521;48.148;-1.656;2023-04-05T16:45:28;0.95;;;0.95;;
26963;SDS011;14521;48.148;-1.656;2023-04-05T16:48:52;1.23;;;1.10;;
26963;SDS011;14521;48.148;-1.656;2023-04-05T16:52:14;1.35;;;1.15;;
26963;SDS011;14521;48.148;-1.656;2023-04-05T16:55:37;1.63;;;1.30;;
26963;SDS011;14521;48.148;-1.656;2023-04-05T16:58:59;2.65;;;1.67;;
26963;SDS011;14521;48.148;-1.656;2023-04-05T17:02:25;1.88;;;1.20;;
26963;SDS011;14521;48.148;-1.656;2023-04-05T17:05:47;2.40;;;1.23;;
26963;SDS011;14521;48.148;-1.656;2023-04-05T17:09:10;2.65;;;1.30;;
26963;SDS011;14521;48.148;-1.656;2023-04-05T17:12:32;1.90;;;1.27;;
26963;SDS011;14521;48.148;-1.656;2023-04-05T17:15:55;2.20;;;1.00;;
26963;SDS011;14521;48.148;-1.656;2023-04-05T17:19:18;1.80;;;1.20;;
26963;SDS011;14521;48.148;-1.656;2023-04-05T17:22:40;1.42;;;1.33;;
26963;SDS011;14521;48.148;-1.656;2023-04-05T17:26:02;6.03;;;1.33;;
26963;SDS011;14521;48.148;-1.656;2023-04-05T17:29:25;2.85;;;1.20;;
26963;SDS011;14521;48.148;-1.656;2023-04-05T17:32:47;2.92;;;1.05;;
26963;SDS011;14521;48.148;-1.656;2023-04-05T17:36:10;1.15;;;1.00;;
26963;SDS011;14521;48.148;-1.656;2023-04-05T17:39:33;7.47;;;1.48;;
26963;SDS011;14521;48.148;-1.656;2023-04-05T17:42:55;1.80;;;1.10;;
26963;SDS011;14521;48.148;-1.656;2023-04-05T17:46:17;1.92;;;1.40;;
26963;SDS011;14521;48.148;-1.656;2023-04-05T17:49:54;1.33;;;1.25;;
26963;SDS011;14521;48.148;-1.656;2023-04-05T17:53:17;1.58;;;1.40;;
26963;SDS011;14521;48.148;-1.656;2023-04-05T17:56:39;2.60;;;1.40;;
26963;SDS011;14521;48.148;-1.656;2023-04-05T18:00:02;3.78;;;2.53;;
26963;SDS011;14521;48.148;-1.656;2023-04-05T18:03:25;2.45;;;2.22;;
26963;SDS011;14521;48.148;-1.656;2023-04-05T18:06:51;6.65;;;5.13;;
26963;SDS011;14521;48.148;-1.656;2023-04-05T18:10:13;10.70;;;4.78;;
26963;SDS011;14521;48.148;-1.656;2023-04-05T18:13:36;6.32;;;4.07;;
26963;SDS011;14521;48.148;-1.656;2023-04-05T18:16:58;4.20;;;3.80;;
26963;SDS011;14521;48.148;-1.656;2023-04-05T18:20:21;4.38;;;3.88;;
26963;SDS011;14521;48.148;-1.656;2023-04-05T18:23:43;5.38;;;4.05;;
26963;SDS011;14521;48.148;-1.656;2023-04-05T18:27:05;5.63;;;4.20;;
26963;SDS011;14521;48.148;-1.656;2023-04-05T18:30:28;5.63;;;3.70;;
26963;SDS011;14521;48.148;-1.656;2023-04-05T18:33:50;6.57;;;3.70;;
26963;SDS011;14521;48.148;-1.656;2023-04-05T18:37:12;6.22;;;3.25;;
26963;SDS011;14521;48.148;-1.656;2023-04-05T18:40:35;2.35;;;2.08;;
26963;SDS011;14521;48.148;-1.656;2023-04-05T18:43:57;5.28;;;2.00;;
26963;SDS011;14521;48.148;-1.656;2023-04-05T18:47:19;3.30;;;2.00;;
26963;SDS011;14521;48.148;-1.656;2023-04-05T18:50:42;6.70;;;2.40;;
26963;SDS011;14521;48.148;-1.656;2023-04-05T18:54:04;6.68;;;2.22;;
26963;SDS011;14521;48.148;-1.656;2023-04-05T18:57:27;4.30;;;1.77;;
26963;SDS011;14521;48.148;-1.656;2023-04-05T19:00:50;2.15;;;1.80;;
26963;SDS011;14521;48.148;-1.656;2023-04-05T19:04:12;7.90;;;1.77;;
26963;SDS011;14521;48.148;-1.656;2023-04-05T19:07:36;3.27;;;1.90;;
26963;SDS011;14521;48.148;-1.656;2023-04-05T19:10:59;3.95;;;2.17;;
26963;SDS011;14521;48.148;-1.656;2023-04-05T19:14:21;1.60;;;1.33;;
26963;SDS011;14521;48.148;-1.656;2023-04-05T19:17:44;3.38;;;1.98;;
26963;SDS011;14521;48.148;-1.656;2023-04-05T19:21:06;2.88;;;2.00;;
26963;SDS011;14521;48.148;-1.656;2023-04-05T19:24:29;6.18;;;2.15;;
26963;SDS011;14521;48.148;-1.656;2023-04-05T19:27:51;3.35;;;2.20;;
26963;SDS011;14521;48.148;-1.656;2023-04-05T19:31:15;2.13;;;1.58;;
26963;SDS011;14521;48.148;-1.656;2023-04-05T19:34:37;2.67;;;1.88;;
26963;SDS011;14521;48.148;-1.656;2023-04-05T19:38:01;2.85;;;1.70;;
26963;SDS011;14521;48.148;-1.656;2023-04-05T19:41:24;1.90;;;1.70;;
26963;SDS011;14521;48.148;-1.656;2023-04-05T19:44:48;1.95;;;1.65;;
26963;SDS011;14521;48.148;-1.656;2023-04-05T19:48:40;4.03;;;1.92;;
26963;SDS011;14521;48.148;-1.656;2023-04-05T19:52:06;3.10;;;1.80;;
26963;SDS011;14521;48.148;-1.656;2023-04-05T19:55:54;3.15;;;2.03;;
26963;SDS011;14521;48.148;-1.656;2023-04-05T19:59:27;4.28;;;1.80;;
26963;SDS011;14521;48.148;-1.656;2023-04-05T20:02:53;2.13;;;1.92;;
26963;SDS011;14521;48.148;-1.656;2023-04-05T20:06:16;3.25;;;1.77;;
26963;SDS011;14521;48.148;-1.656;2023-04-05T20:09:38;1.80;;;1.70;;
26963;SDS011;14521;48.148;-1.656;2023-04-05T20:13:01;1.77;;;1.67;;
26963;SDS011;14521;48.148;-1.656;2023-04-05T20:16:26;3.42;;;2.00;;
26963;SDS011;14521;48.148;-1.656;2023-04-05T20:19:55;1.77;;;1.63;;
26963;SDS011;14521;48.148;-1.656;2023-04-05T20:23:20;1.70;;;1.60;;
26963;SDS011;14521;48.148;-1.656;2023-04-05T20:26:44;3.28;;;1.70;;
26963;SDS011;14521;48.148;-1.656;2023-04-05T20:30:07;1.48;;;1.38;;
26963;SDS011;14521;48.148;-1.656;2023-04-05T20:33:43;2.17;;;2.00;;
26963;SDS011;14521;48.148;-1.656;2023-04-05T20:37:29;1.75;;;1.63;;
26963;SDS011;14521;48.148;-1.656;2023-04-05T20:40:52;1.58;;;1.40;;
26963;SDS011;14521;48.148;-1.656;2023-04-05T20:44:14;2.88;;;1.73;;
26963;SDS011;14521;48.148;-1.656;2023-04-05T20:47:36;5.13;;;1.60;;
26963;SDS011;14521;48.148;-1.656;2023-04-05T20:50:59;2.67;;;1.83;;